Time;durP1;ratioP1;P1;durP2;ratioP2;P2;SDS_P1;SDS_P2;PMS_P1;PMS_P2;Temp;Humidity;BMP_temperature;BMP_pressure;BME280_temperature;BME280_humidity;BME280_pressure;Samples;Min_cycle;Max_cycle;Signal;HPM_P1;HPM_P2
2022/04/29 00:01:07;;;;;;;54.80;33.20;;;;;;;7.00;51.96;99915.39;105422;1284;112460;-71
2022/04/29 00:03:36;;;;;;;39.90;22.10;;;;;;;7.00;52.18;99914.87;105314;1283;96783;-70
2022/04/29 00:06:04;;;;;;;38.60;20.80;;;;;;;6.90;51.96;99916.91;105524;1283;107792;-70
2022/04/29 00:08:32;;;;;;;42.60;24.00;;;;;;;6.78;52.21;99915.48;105482;1283;98023;-69
2022/04/29 00:11:00;;;;;;;38.90;22.50;;;;;;;6.74;52.52;99914.77;105617;1282;97821;-68
2022/04/29 00:13:28;;;;;;;39.90;22.60;;;;;;;6.77;52.63;99915.70;105559;1282;112554;-67
2022/04/29 00:15:56;;;;;;;39.30;22.10;;;;;;;6.79;52.73;99911.35;105411;1283;95216;-69
2022/04/29 00:18:25;;;;;;;39.50;23.00;;;;;;;6.81;52.67;99908.13;105377;1283;107857;-67
2022/04/29 00:20:53;;;;;;;36.50;20.50;;;;;;;6.81;52.72;99910.75;105373;1284;97980;-67
2022/04/29 00:23:22;;;;;;;39.00;21.70;;;;;;;6.82;52.86;99910.87;105524;1283;97866;-66
2022/04/29 00:25:50;;;;;;;38.80;21.20;;;;;;;6.82;52.86;99913.71;105431;1281;112157;-67
2022/04/29 00:28:18;;;;;;;37.40;20.80;;;;;;;6.80;52.82;99912.22;105525;1282;97893;-69
2022/04/29 00:30:46;;;;;;;39.20;23.00;;;;;;;6.80;53.00;99917.84;105597;1283;108434;-71
2022/04/29 00:33:15;;;;;;;38.30;21.60;;;;;;;6.80;52.93;99915.72;105510;1283;95316;-70
2022/04/29 00:35:43;;;;;;;36.20;20.70;;;;;;;6.80;53.08;99918.55;105505;1283;98098;-67
2022/04/29 00:38:15;;;;;;;37.70;21.40;;;;;;;6.81;53.21;99921.51;105433;1282;112052;-68
2022/04/29 00:40:45;;;;;;;40.60;21.30;;;;;;;6.79;53.20;99920.71;105399;1283;97935;-67
2022/04/29 00:43:14;;;;;;;38.10;22.10;;;;;;;6.78;53.35;99924.10;105382;1282;107552;-69
2022/04/29 00:45:43;;;;;;;41.50;22.40;;;;;;;6.78;53.38;99922.52;105457;1283;96438;-67
2022/04/29 00:48:11;;;;;;;37.30;20.10;;;;;;;6.80;53.47;99921.36;105427;1283;97901;-70
2022/04/29 00:50:41;;;;;;;41.90;22.60;;;;;;;6.80;53.60;99923.67;105401;1283;112028;-69
2022/04/29 00:53:12;;;;;;;40.20;21.30;;;;;;;6.81;53.47;99923.11;105423;1282;97898;-68
2022/04/29 00:55:43;;;;;;;37.20;20.70;;;;;;;6.81;53.67;99926.06;105401;1283;107924;-69
2022/04/29 00:58:26;;;;;;;38.70;20.50;;;;;;;6.82;53.70;99924.96;105398;1282;96444;-70
2022/04/29 01:00:54;;;;;;;38.70;21.30;;;;;;;6.83;53.62;99922.98;105391;1283;97856;-69
2022/04/29 01:03:23;;;;;;;41.80;20.90;;;;;;;6.85;53.86;99923.27;105371;1283;112089;-70
2022/04/29 01:05:51;;;;;;;36.70;21.00;;;;;;;6.86;54.02;99920.06;105671;1283;97949;-68
2022/04/29 01:08:20;;;;;;;43.20;21.90;;;;;;;6.88;54.00;99919.80;105464;1283;108757;-68
2022/04/29 01:10:49;;;;;;;41.00;22.10;;;;;;;6.92;54.06;99918.23;106189;1282;97969;-69
2022/04/29 01:13:20;;;;;;;40.00;22.50;;;;;;;6.95;54.07;99915.43;105604;1283;97874;-69
2022/04/29 01:15:50;;;;;;;38.30;21.20;;;;;;;6.98;54.24;99914.08;105461;1282;110069;-67
2022/04/29 01:18:20;;;;;;;37.80;21.00;;;;;;;7.01;54.27;99911.31;105406;1283;97957;-69
2022/04/29 01:21:01;;;;;;;37.00;20.30;;;;;;;7.04;54.44;99911.17;105404;1283;107835;-67
2022/04/29 01:23:30;;;;;;;38.10;20.30;;;;;;;7.08;54.69;99904.66;105483;1282;97910;-69
2022/04/29 01:25:58;;;;;;;37.60;21.10;;;;;;;7.11;54.30;99906.64;105548;1282;97884;-69
2022/04/29 01:28:30;;;;;;;38.30;21.20;;;;;;;7.14;54.64;99906.48;105664;1283;112032;-69
2022/04/29 01:30:59;;;;;;;38.50;18.90;;;;;;;7.17;54.55;99905.81;105598;1282;95213;-68
2022/04/29 01:33:32;;;;;;;35.20;19.60;;;;;;;7.16;54.44;99900.59;105446;1282;108539;-67
2022/04/29 01:36:01;;;;;;;38.80;22.10;;;;;;;7.12;54.62;99904.48;105534;1283;97971;-67
2022/04/29 01:38:29;;;;;;;34.80;20.50;;;;;;;7.13;54.95;99901.41;105351;1283;97861;-70
2022/04/29 01:40:58;;;;;;;40.90;20.70;;;;;;;7.12;54.33;99900.21;105551;1283;111529;-66
2022/04/29 01:43:27;;;;;;;48.20;28.60;;;;;;;7.03;54.70;99903.98;105430;1282;98685;-69
2022/04/29 01:45:56;;;;;;;38.40;21.20;;;;;;;7.04;54.63;99900.23;105459;1282;108504;-68
2022/04/29 01:48:25;;;;;;;38.50;21.50;;;;;;;6.94;54.63;99904.18;105536;1281;96337;-69
2022/04/29 01:50:54;;;;;;;35.80;19.80;;;;;;;6.90;54.78;99903.50;105478;1282;98078;-66
2022/04/29 01:53:23;;;;;;;36.50;21.00;;;;;;;6.84;54.40;99898.48;105258;1282;111328;-68
2022/04/29 01:55:52;;;;;;;35.90;18.60;;;;;;;6.63;54.43;99903.40;105226;1283;95314;-69
2022/04/29 01:58:20;;;;;;;33.90;18.70;;;;;;;6.48;54.43;99900.86;105454;1283;105610;-68
2022/04/29 02:00:48;;;;;;;38.60;19.90;;;;;;;6.35;54.42;99900.73;105543;1282;98043;-66
2022/04/29 02:03:17;;;;;;;37.60;19.90;;;;;;;6.15;54.62;99899.08;105524;1282;99039;-66
2022/04/29 02:05:47;;;;;;;36.20;19.30;;;;;;;6.00;54.73;99898.94;105534;1282;111392;-69
2022/04/29 02:08:15;;;;;;;35.80;20.30;;;;;;;5.87;55.01;99894.70;105543;1282;97979;-66
2022/04/29 02:10:43;;;;;;;36.50;20.80;;;;;;;5.78;55.06;99894.34;105534;1282;108709;-71
2022/04/29 02:13:13;;;;;;;40.50;21.30;;;;;;;5.72;55.27;99894.38;105457;1282;97922;-68
2022/04/29 02:15:41;;;;;;;37.80;19.90;;;;;;;5.71;55.46;99891.63;105655;1283;98053;-67
2022/04/29 02:18:10;;;;;;;34.20;19.80;;;;;;;5.72;55.53;99890.70;105613;1283;112132;-69
2022/04/29 02:20:39;;;;;;;38.30;22.80;;;;;;;5.72;55.98;99891.95;105650;1283;95412;-67
2022/04/29 02:23:08;;;;;;;39.10;21.60;;;;;;;5.75;55.91;99892.54;105556;1283;107444;-69
2022/04/29 02:25:36;;;;;;;37.90;22.50;;;;;;;5.74;56.03;99891.69;105589;1283;97969;-68
2022/04/29 02:28:05;;;;;;;42.70;24.00;;;;;;;5.73;55.99;99887.17;105676;1283;97169;-67
2022/04/29 02:30:33;;;;;;;41.40;21.50;;;;;;;5.67;56.17;99890.03;105701;1282;111129;-66
2022/04/29 02:33:01;;;;;;;44.60;23.90;;;;;;;5.64;56.32;99888.40;105652;1283;97910;-68
2022/04/29 02:35:29;;;;;;;39.50;22.70;;;;;;;5.63;56.37;99890.20;105627;1283;108376;-68
2022/04/29 02:37:57;;;;;;;36.10;21.30;;;;;;;5.58;56.57;99883.88;105672;1283;98101;-68
2022/04/29 02:40:26;;;;;;;40.70;23.00;;;;;;;5.54;56.88;99879.27;105719;1282;97964;-68
2022/04/29 02:42:54;;;;;;;40.80;23.50;;;;;;;5.52;56.92;99876.17;105702;1283;112019;-71
2022/04/29 02:45:22;;;;;;;39.80;23.10;;;;;;;5.50;57.00;99873.96;105652;1282;97653;-68
2022/04/29 02:47:50;;;;;;;39.60;22.60;;;;;;;5.54;57.11;99876.65;105635;1283;107612;-69
2022/04/29 02:50:19;;;;;;;43.80;24.30;;;;;;;5.56;57.26;99873.21;105605;1283;97889;-70
2022/04/29 02:52:47;;;;;;;41.00;22.70;;;;;;;5.59;57.36;99870.81;105649;1283;95424;-68
2022/04/29 02:55:16;;;;;;;40.90;22.60;;;;;;;5.63;57.38;99871.00;105690;1282;111086;-70
2022/04/29 02:57:44;;;;;;;38.40;23.70;;;;;;;5.68;57.40;99872.41;105611;1283;98052;-68
2022/04/29 03:00:14;;;;;;;38.60;22.20;;;;;;;5.69;57.46;99869.73;105605;1283;108386;-66
2022/04/29 03:02:42;;;;;;;40.10;23.30;;;;;;;5.68;57.82;99871.36;105528;1282;98003;-69
2022/04/29 03:05:10;;;;;;;34.50;20.50;;;;;;;5.66;57.82;99873.55;105451;1283;97974;-69
2022/04/29 03:07:40;;;;;;;38.10;20.60;;;;;;;5.68;58.10;99873.11;105372;1283;112041;-69
2022/04/29 03:10:08;;;;;;;33.90;20.90;;;;;;;5.74;58.31;99874.45;105609;1283;95395;-69
2022/04/29 03:12:38;;;;;;;36.80;21.30;;;;;;;5.80;58.50;99874.73;105414;1282;107591;-67
2022/04/29 03:15:18;;;;;;;36.30;18.60;;;;;;;5.89;58.56;99881.44;105392;1282;96493;-68
2022/04/29 03:20:37;;;;;;;30.60;16.10;;;;;;;6.04;58.60;99884.21;105413;1282;112000;-65
2022/04/29 03:23:07;;;;;;;28.10;14.80;;;;;;;6.09;58.78;99883.81;105630;1283;98017;-69
2022/04/29 03:25:37;;;;;;;29.20;14.00;;;;;;;6.15;58.62;99887.63;105394;1283;108742;-69
2022/04/29 03:28:06;;;;;;;27.60;14.20;;;;;;;6.18;58.47;99888.39;105629;1282;98445;-70
2022/04/29 03:30:36;;;;;;;28.20;13.60;;;;;;;6.20;58.74;99890.96;105652;1282;98448;-70
2022/04/29 03:33:06;;;;;;;27.70;14.20;;;;;;;6.23;58.82;99885.54;105661;1283;111425;-69
2022/04/29 03:35:40;;;;;;;27.90;14.00;;;;;;;6.29;58.93;99886.90;105444;1282;98035;-69
2022/04/29 03:38:08;;;;;;;24.60;12.70;;;;;;;6.33;58.90;99888.64;105413;1282;107756;-67
2022/04/29 03:40:36;;;;;;;27.00;12.70;;;;;;;6.34;58.71;99884.21;105664;1283;96212;-67
2022/04/29 03:43:05;;;;;;;26.00;13.60;;;;;;;6.34;58.82;99886.85;105100;1283;757534;-68
2022/04/29 03:45:34;;;;;;;24.60;12.20;;;;;;;6.35;59.12;99888.38;105260;1284;111603;-69
2022/04/29 03:48:04;;;;;;;25.90;12.30;;;;;;;6.38;58.87;99894.26;105604;1283;97900;-70
2022/04/29 03:50:32;;;;;;;23.10;11.70;;;;;;;6.42;59.04;99900.63;105699;1283;107917;-71
2022/04/29 03:53:04;;;;;;;24.80;12.40;;;;;;;6.45;58.95;99913.86;105694;1283;97880;-68
2022/04/29 03:55:35;;;;;;;38.40;20.10;;;;;;;6.45;58.85;99919.34;105662;1283;97873;-69
2022/04/29 03:58:03;;;;;;;31.60;18.70;;;;;;;6.41;59.13;99911.75;105704;1283;111347;-69
2022/04/29 04:00:34;;;;;;;34.20;19.30;;;;;;;6.39;59.04;99918.51;105671;1283;99138;-70
2022/04/29 04:03:06;;;;;;;33.80;19.00;;;;;;;6.41;59.10;99921.77;105644;1283;107836;-69
2022/04/29 04:05:35;;;;;;;38.30;21.50;;;;;;;6.43;59.34;99921.02;105585;1283;98382;-69
2022/04/29 04:08:03;;;;;;;36.80;20.50;;;;;;;6.46;59.22;99927.05;105271;1283;97881;-70
2022/04/29 04:10:31;;;;;;;36.40;20.60;;;;;;;6.50;59.35;99932.18;105471;1282;111143;-70
2022/04/29 04:13:00;;;;;;;35.40;21.00;;;;;;;6.54;59.44;99927.59;105586;1283;95299;-68
2022/04/29 04:15:28;;;;;;;39.10;21.30;;;;;;;6.59;59.36;99931.09;105549;1283;107715;-68
2022/04/29 04:17:56;;;;;;;36.80;20.80;;;;;;;6.63;59.29;99934.45;105487;1283;98079;-69
2022/04/29 04:20:24;;;;;;;39.80;21.90;;;;;;;6.65;59.47;99932.77;105444;1284;97903;-70
2022/04/29 04:22:52;;;;;;;36.40;21.40;;;;;;;6.69;59.50;99935.60;105514;1283;111551;-70
2022/04/29 04:25:20;;;;;;;38.40;22.10;;;;;;;6.73;59.49;99937.02;105600;1283;98009;-70
2022/04/29 04:27:48;;;;;;;36.30;21.30;;;;;;;6.76;59.63;99935.64;105531;1283;108670;-69
2022/04/29 04:30:17;;;;;;;35.30;20.70;;;;;;;6.79;59.48;99941.70;105370;1282;97885;-71
2022/04/29 04:32:44;;;;;;;35.50;20.20;;;;;;;6.82;59.61;99946.50;105647;1283;97881;-68
2022/04/29 04:35:13;;;;;;;33.50;20.50;;;;;;;6.87;59.90;99946.47;105581;1281;112000;-69
2022/04/29 04:37:41;;;;;;;37.90;20.40;;;;;;;6.91;59.74;99946.64;105674;1283;97992;-69
2022/04/29 04:40:11;;;;;;;40.30;21.50;;;;;;;6.96;59.71;99948.39;105605;1283;108090;-69
2022/04/29 04:42:46;;;;;;;34.20;19.80;;;;;;;7.01;59.94;99952.75;105629;1283;97995;-69
2022/04/29 04:45:14;;;;;;;36.20;20.50;;;;;;;7.05;59.94;99951.52;105614;1283;98094;-70
2022/04/29 04:47:42;;;;;;;35.00;20.70;;;;;;;7.10;59.82;99947.24;105608;1283;112028;-69
2022/04/29 04:50:11;;;;;;;37.50;22.00;;;;;;;7.14;60.05;99950.05;105592;1283;95366;-69
2022/04/29 04:52:44;;;;;;;37.00;21.70;;;;;;;7.19;59.98;99948.97;105556;1283;108387;-69
2022/04/29 04:55:13;;;;;;;38.00;21.60;;;;;;;7.23;59.96;99949.67;105424;1283;97921;-70
2022/04/29 04:57:41;;;;;;;36.80;20.90;;;;;;;7.29;60.13;99954.52;105387;1282;98009;-73
2022/04/29 05:00:11;;;;;;;35.30;21.80;;;;;;;7.35;60.24;99958.65;105473;1282;111475;-70
2022/04/29 05:02:40;;;;;;;40.00;21.40;;;;;;;7.40;59.90;99959.65;105612;1283;97988;-75
2022/04/29 05:05:09;;;;;;;35.00;21.10;;;;;;;7.43;60.16;99958.45;105613;1283;107704;-71
2022/04/29 05:07:38;;;;;;;34.80;21.10;;;;;;;7.47;60.28;99961.30;105326;1283;97983;-70
2022/04/29 05:10:08;;;;;;;37.00;19.80;;;;;;;7.51;60.15;99960.23;105569;1283;97893;-70
2022/04/29 05:12:40;;;;;;;38.30;20.60;;;;;;;7.56;60.35;99960.69;105560;1282;111432;-69
2022/04/29 05:15:09;;;;;;;34.00;20.60;;;;;;;7.63;60.19;99957.75;105570;1283;97999;-70
2022/04/29 05:17:39;;;;;;;36.50;21.30;;;;;;;7.70;60.29;99957.42;105553;1282;107855;-70
2022/04/29 05:20:11;;;;;;;36.70;22.00;;;;;;;7.78;60.30;99954.39;105564;1282;98997;-70
2022/04/29 05:22:39;;;;;;;34.80;21.20;;;;;;;7.87;60.34;99955.05;105322;1283;97792;-73
2022/04/29 05:25:09;;;;;;;37.60;22.00;;;;;;;7.97;60.41;99954.20;105241;1283;111491;-73
2022/04/29 05:27:37;;;;;;;38.90;21.90;;;;;;;8.09;60.48;99954.20;105484;1283;97954;-73
2022/04/29 05:30:06;;;;;;;31.90;19.50;;;;;;;8.20;60.52;99952.75;105555;1283;107905;-71
2022/04/29 05:32:38;;;;;;;33.60;18.90;;;;;;;8.32;60.54;99954.66;105632;1283;97909;-71
2022/04/29 05:35:08;;;;;;;33.20;19.30;;;;;;;8.43;60.53;99954.48;105530;1282;96705;-72
2022/04/29 05:37:40;;;;;;;34.90;19.60;;;;;;;8.54;60.54;99952.71;105571;1282;112930;-69
2022/04/29 05:42:55;;;;;;;33.20;19.80;;;;;;;8.80;60.78;99956.72;105420;1282;107751;-70
2022/04/29 05:45:23;;;;;;;33.40;20.90;;;;;;;8.93;60.60;99959.46;105562;1283;98053;-73
2022/04/29 05:47:51;;;;;;;35.80;20.80;;;;;;;9.04;60.60;99962.20;105647;1283;98576;-74
2022/04/29 05:50:19;;;;;;;34.10;21.30;;;;;;;9.16;60.69;99960.56;105618;1283;110741;-75
2022/04/29 05:52:47;;;;;;;35.20;20.50;;;;;;;9.26;60.65;99959.33;105553;1283;97994;-72
2022/04/29 05:55:16;;;;;;;36.50;20.20;;;;;;;9.35;60.66;99961.34;105615;1283;107761;-71
2022/04/29 05:58:05;;;;;;;37.50;20.10;;;;;;;9.44;60.64;99964.90;105580;1283;98097;-72
2022/04/29 06:00:35;;;;;;;35.70;21.00;;;;;;;9.53;60.69;99965.49;105290;1282;97968;-71
2022/04/29 06:03:03;;;;;;;38.40;22.20;;;;;;;9.63;60.66;99969.55;105588;1282;109811;-73
2022/04/29 06:05:32;;;;;;;38.60;21.10;;;;;;;9.72;60.67;99971.18;105302;1283;97791;-72
2022/04/29 06:07:59;;;;;;;36.10;21.30;;;;;;;9.80;60.62;99970.05;105311;1284;106741;-72
2022/04/29 06:10:27;;;;;;;36.90;21.30;;;;;;;9.88;60.61;99973.73;105410;1282;97992;-71
2022/04/29 06:12:55;;;;;;;34.30;21.00;;;;;;;9.94;60.66;99973.40;105580;1283;97995;-71
2022/04/29 06:15:23;;;;;;;34.40;21.90;;;;;;;9.99;60.60;99976.98;105481;1282;111505;-72
2022/04/29 06:17:51;;;;;;;35.30;22.10;;;;;;;10.04;60.53;99977.83;105266;1284;98578;-73
2022/04/29 06:20:19;;;;;;;37.30;22.50;;;;;;;10.09;60.54;99980.19;105481;1282;107756;-73
2022/04/29 06:22:48;;;;;;;38.10;22.00;;;;;;;10.14;60.53;99978.31;105265;1283;97874;-72
2022/04/29 06:25:18;;;;;;;39.40;22.90;;;;;;;10.21;60.53;99983.23;105505;1282;95230;-71
2022/04/29 06:27:47;;;;;;;35.60;21.70;;;;;;;10.28;60.51;99982.10;105515;1283;112576;-70
2022/04/29 06:30:15;;;;;;;32.80;21.20;;;;;;;10.39;60.50;99980.84;105509;1282;97759;-72
2022/04/29 06:33:03;;;;;;;35.20;20.90;;;;;;;10.48;60.44;99979.09;105549;1283;107569;-72
2022/04/29 06:35:31;;;;;;;37.20;22.00;;;;;;;10.56;60.42;99981.63;105567;1283;97919;-73
2022/04/29 06:38:24;;;;;;;35.50;21.90;;;;;;;10.65;60.58;99985.04;105545;1282;98009;-74
2022/04/29 06:40:55;;;;;;;;;;;;;;;10.72;60.62;99985.84;105588;1283;111993;-73
2022/04/29 06:43:24;;;;;;;36.90;19.90;;;;;;;10.75;60.64;99984.60;105548;1283;97849;-71
2022/04/29 06:45:52;;;;;;;35.90;21.80;;;;;;;10.81;60.58;99986.05;105499;1283;108376;-71
2022/04/29 06:48:20;;;;;;;41.20;22.80;;;;;;;10.88;60.56;99985.61;105449;1283;96625;-73
2022/04/29 06:50:48;;;;;;;39.10;22.60;;;;;;;10.96;60.51;99984.77;105216;1282;97933;-72
2022/04/29 06:53:17;;;;;;;38.60;22.00;;;;;;;11.07;60.39;99983.77;105324;1282;111470;-72
2022/04/29 06:55:45;;;;;;;34.70;21.00;;;;;;;11.19;60.38;99984.34;105319;1282;95316;-71
2022/04/29 06:58:13;;;;;;;40.30;22.10;;;;;;;11.31;60.39;99986.59;105307;1283;107778;-72
2022/04/29 07:00:42;;;;;;;38.40;20.00;;;;;;;11.43;60.14;99990.64;105301;1283;97894;-71
2022/04/29 07:03:12;;;;;;;31.00;17.90;;;;;;;11.57;60.11;99991.05;105152;1284;97886;-72
2022/04/29 07:05:41;;;;;;;29.50;18.40;;;;;;;11.72;60.28;99991.23;105276;1283;111380;-73
2022/04/29 07:08:11;;;;;;;31.10;16.40;;;;;;;12.33;59.40;99989.98;105303;1283;97991;-72
2022/04/29 07:10:40;;;;;;;28.30;16.30;;;;;;;14.00;57.91;99980.92;105465;1283;107747;-73
2022/04/29 07:13:09;;;;;;;28.30;16.50;;;;;;;15.69;57.59;99980.60;105500;1283;97909;-73
2022/04/29 07:15:43;;;;;;;29.80;16.00;;;;;;;17.33;57.42;99976.63;105434;1283;96401;-73
2022/04/29 07:18:12;;;;;;;27.10;16.10;;;;;;;18.91;57.10;99977.11;105367;1283;111512;-73
2022/04/29 07:20:41;;;;;;;25.20;15.30;;;;;;;20.17;57.20;99974.98;105140;1284;95232;-74
2022/04/29 07:23:09;;;;;;;23.20;13.90;;;;;;;21.27;57.19;99978.59;105284;1283;107839;-70
2022/04/29 07:25:38;;;;;;;22.30;12.60;;;;;;;22.22;56.80;99975.00;105234;1283;97766;-73
2022/04/29 07:28:07;;;;;;;24.60;14.10;;;;;;;22.98;56.55;99976.15;105410;1283;95889;-72
2022/04/29 07:30:36;;;;;;;25.20;13.20;;;;;;;23.69;56.54;99976.06;105056;1284;111221;-72
2022/04/29 07:33:04;;;;;;;23.30;12.90;;;;;;;24.22;56.14;99979.02;105397;1282;95466;-73
2022/04/29 07:43:52;;;;;;;20.00;10.80;;;;;;;24.91;56.31;99991.81;105361;1283;112051;-72
2022/04/29 07:46:21;;;;;;;19.20;10.10;;;;;;;24.91;56.03;99991.62;105386;1283;95815;-74
2022/04/29 07:48:52;;;;;;;19.70;9.70;;;;;;;25.39;55.09;99985.77;105341;1283;108148;-76
2022/04/29 07:51:21;;;;;;;22.10;10.30;;;;;;;26.02;54.64;99980.45;105370;1283;96581;-70
2022/04/29 07:53:49;;;;;;;18.90;10.00;;;;;;;26.49;54.63;99981.04;105402;1283;98044;-73
2022/04/29 07:56:17;;;;;;;18.80;10.20;;;;;;;26.54;54.93;99980.91;105350;1283;113162;-73
2022/04/29 07:58:45;;;;;;;17.80;9.50;;;;;;;26.86;54.69;99977.80;105395;1283;98399;-73
2022/04/29 08:01:13;;;;;;;21.10;9.80;;;;;;;27.24;53.53;99976.90;105257;1283;108295;-72
2022/04/29 08:03:43;;;;;;;17.90;8.20;;;;;;;27.47;53.01;99978.70;105329;1283;97900;-72
2022/04/29 08:06:13;;;;;;;18.40;8.90;;;;;;;27.36;52.35;99977.94;105384;1283;98622;-73
2022/04/29 08:08:41;;;;;;;15.90;8.00;;;;;;;26.42;51.57;99979.44;105462;1283;110810;-72
2022/04/29 08:11:09;;;;;;;17.10;8.60;;;;;;;25.23;51.09;99983.66;105564;1283;97754;-73
2022/04/29 08:13:39;;;;;;;17.50;8.80;;;;;;;24.06;51.34;99983.52;105443;1283;107763;-73
2022/04/29 08:16:28;;;;;;;16.50;9.20;;;;;;;23.59;51.92;99979.17;105431;1283;98084;-72
2022/04/29 08:18:59;;;;;;;19.20;9.60;;;;;;;23.28;51.67;99975.05;105411;1283;97902;-75
2022/04/29 08:21:27;;;;;;;19.20;9.30;;;;;;;23.39;51.20;99976.73;105417;1282;109709;-72
2022/04/29 08:23:55;;;;;;;18.10;9.00;;;;;;;23.95;50.58;99973.41;105471;1283;96555;-71
2022/04/29 08:26:23;;;;;;;17.60;9.20;;;;;;;24.04;51.16;99967.60;105140;1283;107791;-73
2022/04/29 08:28:51;;;;;;;18.30;8.40;;;;;;;24.03;51.19;99966.56;105276;1283;97858;-72
2022/04/29 08:31:23;;;;;;;17.20;8.80;;;;;;;24.00;51.02;99964.80;105368;1283;97881;-71
2022/04/29 08:33:51;;;;;;;19.00;8.80;;;;;;;23.94;50.55;99958.95;105459;1283;110255;-72
2022/04/29 08:36:20;;;;;;;14.80;7.60;;;;;;;23.80;50.31;99962.25;105443;1282;97874;-72
2022/04/29 08:38:48;;;;;;;17.30;8.50;;;;;;;23.22;49.46;99960.50;105460;1282;107800;-71
2022/04/29 08:41:19;;;;;;;11.90;6.00;;;;;;;22.99;48.51;99955.10;105355;1282;96066;-73
2022/04/29 08:43:49;;;;;;;13.70;6.60;;;;;;;22.72;47.87;99954.41;105132;1282;97946;-73
2022/04/29 08:46:23;;;;;;;12.60;6.00;;;;;;;22.25;47.83;99957.13;105471;1282;110627;-75
2022/04/29 08:48:52;;;;;;;12.90;6.40;;;;;;;22.09;48.19;99953.48;105413;1282;98221;-73
2022/04/29 08:51:20;;;;;;;15.90;6.90;;;;;;;21.82;48.03;99952.35;105458;1283;107839;-77
2022/04/29 08:53:48;;;;;;;14.70;7.70;;;;;;;21.92;47.64;99948.64;105357;1283;97989;-75
2022/04/29 08:59:07;;;;;;;17.20;8.30;;;;;;;21.96;47.16;99949.63;105456;1282;111479;-73
2022/04/29 09:01:34;;;;;;;20.80;9.20;;;;;;;21.70;47.35;99950.48;105355;1283;97860;-76
2022/04/29 09:04:04;;;;;;;16.60;8.00;;;;;;;21.50;47.03;99946.98;105589;1282;108835;-71
2022/04/29 09:06:32;;;;;;;16.90;8.10;;;;;;;21.83;46.73;99942.64;105994;1282;96361;-72
2022/04/29 09:09:09;;;;;;;18.40;7.80;;;;;;;22.42;46.88;99935.95;105860;1282;97831;-73
2022/04/29 09:11:37;;;;;;;16.10;7.80;;;;;;;23.18;46.74;99934.89;105542;1282;111249;-73
2022/04/29 09:14:25;;;;;;;15.30;7.90;;;;;;;23.65;46.53;99931.44;105611;1283;97863;-71
2022/04/29 09:16:54;;;;;;;14.90;7.70;;;;;;;24.20;46.10;99930.98;105529;1282;109317;-73
2022/04/29 09:19:36;;;;;;;13.50;7.10;;;;;;;24.81;46.51;99931.41;105526;1282;97978;-71
2022/04/29 09:22:12;;;;;;;14.40;6.60;;;;;;;25.55;46.11;99924.45;105539;1282;97963;-72
2022/04/29 09:24:40;;;;;;;18.50;7.70;;;;;;;25.71;45.51;99922.53;105506;1282;111436;-73
2022/04/29 09:27:11;;;;;;;17.50;7.90;;;;;;;25.68;45.66;99919.02;105715;1283;96501;-73
2022/04/29 09:29:43;;;;;;;16.30;7.60;;;;;;;25.96;45.40;99914.46;105539;1283;107888;-73
2022/04/29 09:32:11;;;;;;;20.30;9.00;;;;;;;25.85;44.65;99913.19;105323;1282;97893;-73
2022/04/29 09:34:54;;;;;;;13.00;7.00;;;;;;;25.62;44.73;99913.15;105617;1282;97898;-73
2022/04/29 09:37:27;;;;;;;17.20;6.90;;;;;;;25.60;44.40;99911.92;105507;1282;111582;-70
2022/04/29 09:40:02;;;;;;;15.30;7.40;;;;;;;25.76;44.89;99907.92;105524;1282;98953;-71
2022/04/29 09:42:46;;;;;;;16.50;7.50;;;;;;;25.89;44.42;99908.85;105269;1283;107714;-71
2022/04/29 09:45:22;;;;;;;14.50;7.10;;;;;;;26.01;44.60;99906.70;105475;1282;97938;-70
2022/04/29 09:48:02;;;;;;;15.50;7.40;;;;;;;26.33;44.68;99905.02;105586;1283;97897;-73
2022/04/29 09:50:53;;;;;;;15.00;7.40;;;;;;;26.61;44.46;99901.74;105335;1283;111799;-71
2022/04/29 09:53:26;;;;;;;14.20;7.20;;;;;;;26.70;44.07;99900.73;105555;1283;95705;-68
2022/04/29 09:56:12;;;;;;;14.00;7.00;;;;;;;26.51;44.09;99898.02;105233;1284;106988;-73
2022/04/29 09:58:41;;;;;;;14.90;7.80;;;;;;;26.45;43.93;99899.05;105588;1282;97979;-74
2022/04/29 10:01:15;;;;;;;18.80;7.40;;;;;;;26.10;43.86;99901.91;105419;1283;98001;-73
2022/04/29 10:03:45;;;;;;;15.00;6.90;;;;;;;25.97;44.11;99897.19;105296;1283;111447;-73
2022/04/29 10:06:20;;;;;;;19.30;7.80;;;;;;;25.89;44.00;99898.48;105484;1282;98439;-72
2022/04/29 10:08:54;;;;;;;16.00;7.60;;;;;;;25.63;43.77;99895.86;105577;1283;107863;-72
2022/04/29 10:11:25;;;;;;;15.60;7.20;;;;;;;25.38;43.34;99892.17;105467;1283;96597;-73
2022/04/29 10:13:54;;;;;;;16.20;7.20;;;;;;;25.07;43.19;99900.30;105499;1283;96632;-72
2022/04/29 10:16:28;;;;;;;16.60;7.20;;;;;;;24.44;42.87;99897.40;105346;1283;110416;-72
2022/04/29 10:21:53;;;;;;;16.50;7.40;;;;;;;23.28;42.80;99897.05;105360;1282;108590;-73
2022/04/29 10:24:24;;;;;;;17.20;7.20;;;;;;;22.86;42.51;99895.80;105352;1282;98038;-72
2022/04/29 10:26:53;;;;;;;14.40;7.00;;;;;;;22.52;42.18;99893.55;105444;1282;97903;-72
2022/04/29 10:29:22;;;;;;;15.60;6.90;;;;;;;22.03;41.88;99894.69;105283;1282;110424;-72
2022/04/29 10:32:22;;;;;;;15.20;6.80;;;;;;;21.48;41.69;99895.80;105394;1283;97866;-71
2022/04/29 10:34:54;;;;;;;15.40;7.00;;;;;;;20.94;41.84;99901.13;104794;1284;108459;-73
2022/04/29 10:37:33;;;;;;;16.60;6.50;;;;;;;20.62;41.76;99900.39;105322;1283;96582;-73
2022/04/29 10:40:11;;;;;;;16.90;7.30;;;;;;;20.30;41.77;99905.42;105539;1283;96595;-71
2022/04/29 10:43:04;;;;;;;14.70;6.60;;;;;;;20.05;41.59;99903.08;105559;1282;111504;-70
2022/04/29 10:45:32;;;;;;;14.40;6.90;;;;;;;19.72;41.33;99903.87;105618;1283;97860;-72
2022/04/29 10:48:33;;;;;;;16.10;7.60;;;;;;;19.45;41.33;99902.36;105624;1283;107858;-69
2022/04/29 10:51:15;;;;;;;16.00;7.20;;;;;;;19.24;41.36;99906.53;105570;1283;95923;-72
2022/04/29 10:53:47;;;;;;;16.60;8.10;;;;;;;19.06;41.31;99905.38;105534;1283;95388;-71
2022/04/29 10:56:36;;;;;;;14.70;7.10;;;;;;;18.98;41.35;99904.70;105556;1282;112237;-72
2022/04/29 10:59:04;;;;;;;14.50;7.10;;;;;;;18.91;41.27;99905.33;105610;1282;95299;-73
2022/04/29 11:01:34;;;;;;;16.80;7.10;;;;;;;18.76;41.14;99908.67;105557;1283;108420;-73
2022/04/29 11:04:06;;;;;;;16.10;7.40;;;;;;;18.61;41.21;99906.14;105544;1282;97844;-73
2022/04/29 11:06:45;;;;;;;17.90;8.90;;;;;;;18.47;41.10;99909.34;105664;1283;97892;-73
2022/04/29 11:09:48;;;;;;;14.90;6.80;;;;;;;18.39;41.13;99910.82;105552;1283;112415;-74
2022/04/29 11:12:54;;;;;;;16.10;6.90;;;;;;;18.27;40.96;99909.40;105613;1283;95270;-73
2022/04/29 11:15:25;;;;;;;15.80;7.40;;;;;;;18.14;41.10;99908.06;105203;1283;106593;-70
2022/04/29 11:18:11;;;;;;;16.50;7.40;;;;;;;18.07;41.04;99904.23;105602;1283;97909;-70
2022/04/29 11:20:44;;;;;;;19.80;8.10;;;;;;;17.99;41.07;99902.08;105627;1283;97895;-72
2022/04/29 11:26:02;;;;;;;19.50;8.70;;;;;;;17.77;41.07;99898.05;105589;1283;97847;-73
2022/04/29 11:28:36;;;;;;;20.20;9.30;;;;;;;17.69;40.91;99900.88;105509;1283;107599;-73
2022/04/29 11:31:09;;;;;;;19.60;8.70;;;;;;;17.54;40.82;99897.39;105658;1283;97854;-73
2022/04/29 11:33:38;;;;;;;18.40;8.90;;;;;;;17.33;40.89;99894.23;105584;1282;97895;-72
2022/04/29 11:36:09;;;;;;;18.80;9.00;;;;;;;17.16;40.94;99893.76;105574;1283;111398;-71
2022/04/29 11:38:45;;;;;;;19.50;8.60;;;;;;;17.04;40.69;99888.66;105542;1283;97894;-71
2022/04/29 11:41:20;;;;;;;18.40;8.40;;;;;;;17.00;40.93;99889.71;105472;1283;107771;-71
2022/04/29 11:43:50;;;;;;;17.40;7.50;;;;;;;17.00;40.73;99883.31;105558;1283;96008;-70
2022/04/29 11:46:20;;;;;;;18.40;7.10;;;;;;;16.99;40.85;99880.48;105582;1283;97915;-71
2022/04/29 11:49:00;;;;;;;19.70;7.60;;;;;;;16.98;40.90;99878.83;105256;1286;111192;-71
2022/04/29 11:51:30;;;;;;;16.30;6.70;;;;;;;16.96;41.09;99876.60;105641;1283;98018;-70
2022/04/29 11:54:00;;;;;;;16.00;7.30;;;;;;;16.93;40.87;99876.09;105586;1283;107730;-71